Bettendorf, IA (52722)

8:50 PM CDT on August 31, 2015 (GMT -0500)
Stafford Creek | | Change Station
CLOSE
Current Station
Personal Weather Station
Location: Bettendorf, IA
Elevation: 682 ft
Nearby Weather Stations

Elev 682 ft 41.57 °N, 90.50 °W | Updated 11 minutes ago

Clear
Clear
74.5 °F
Feels Like 73 °F
N
0.0
Wind Variable Wind from South

Today
High -- | Low -- °F
--% Chance of Precip.
Yesterday
High -- | Low -- °F
Precip. -- in
6:26 AM 7:36 PM
Waning Gibbous, 92% visible
Pressure 29.98 in
Visibility 9.0 miles
Clouds Clear
Heat Index 73 °F
Dew Point 72 °F
Humidity 91%
Rainfall 0.00 in
Snow Depth Not available.
UV 0 out of 12
Pollen 10.60 out of 12
Air Quality Not available.
Flu Activity Not available.
METAR KDVN 010052Z AUTO 13004KT 9SM CLR 24/22 A2998 RMK AO2 SLP150 T02440222
Pressure 29.98 in
Visibility 9.0 miles
Clouds Clear
Heat Index 73 °F
Dew Point 72 °F
Humidity 91%
Rainfall 0.00 in
Snow Depth Not available.
UV 0 out of 12
Pollen 10.60 out of 12
Air Quality Not available.
Flu Activity Not available.
METAR KDVN 010052Z AUTO 13004KT 9SM CLR 24/22 A2998 RMK AO2 SLP150 T02440222

10-Day Weather Forecast

×

Almanac

Astronomy

Aug. 31, 2015 Rise Set
Actual Time
Civil Twilight
Nautical Twilight
Astronomical Twilight
Moon
Length of Visible Light
Length of Day
Tomorrow will be .
, % of the Moon is Illuminated

Today's Extremes

State Highs State Lows

Community

WunderPhotos

Upload Photos

1,851,427 photos uploaded!

WunderBlogs® & News

Nearby

Air Quality

  Air Quality AQ Index Pollutant
Not available.

Snow Depth

Station Depth Elevation

Earthquake Activity

City Distance Mag. Time & Date
Minimum magnitude displayed is 2.5.

Coastal Water Temperatures

Place Temperature

Stations

Nearby Weather Stations

Station Location Temp. Windchill Dew Point Humidity Wind Precip. Elev Updated Type